Time;durP1;ratioP1;P1;durP2;ratioP2;P2;SDS_P1;SDS_P2;PMS_P1;PMS_P2;Temp;Humidity;BMP_temperature;BMP_pressure;BME280_temperature;BME280_humidity;BME280_pressure;Samples;Min_cycle;Max_cycle;Signal;HPM_P1;HPM_P2
2021/03/20 00:00:38;;;;;;;;;;;;;;;19.78;34.95;101036.84;5055619;28;804;-44
2021/03/20 00:03:04;;;;;;;;;;;;;;;19.37;35.77;101024.19;5056145;28;948;-44
2021/03/20 00:05:29;;;;;;;;;;;;;;;19.32;36.15;101025.06;5055884;28;832;-45
2021/03/20 00:07:54;;;;;;;;;;;;;;;20.08;34.62;101030.25;5055420;28;792;-44
2021/03/20 00:10:20;;;;;;;;;;;;;;;20.00;34.36;101019.84;5038151;28;1188;-44
2021/03/20 00:12:46;;;;;;;;;;;;;;;19.92;34.96;101020.47;5038068;28;2052;-45
2021/03/20 00:15:12;;;;;;;;;;;;;;;19.55;35.30;101016.34;5037441;28;859;-55
2021/03/20 00:17:37;;;;;;;;;;;;;;;19.04;36.59;101017.50;5055943;28;995;-45
2021/03/20 00:20:03;;;;;;;;;;;;;;;19.90;35.10;101012.47;5055665;28;800;-44
2021/03/20 00:22:29;;;;;;;;;;;;;;;20.15;34.33;101008.63;5055234;28;822;-44
2021/03/20 00:24:55;;;;;;;;;;;;;;;19.92;34.85;101004.75;5055873;28;764;-44
2021/03/20 00:27:20;;;;;;;;;;;;;;;19.62;35.21;101000.28;5055854;28;729;-45
2021/03/20 00:29:46;;;;;;;;;;;;;;;19.00;36.55;101000.72;5058885;28;814;-44
2021/03/20 00:32:11;;;;;;;;;;;;;;;19.68;35.28;100999.13;5059042;28;1902;-44
2021/03/20 00:34:37;;;;;;;;;;;;;;;20.39;33.88;101007.81;5041481;28;1269;-44
2021/03/20 00:37:03;;;;;;;;;;;;;;;19.81;34.91;101001.25;5058958;28;1032;-44
2021/03/20 00:39:28;;;;;;;;;;;;;;;19.64;35.30;101007.16;5059586;28;792;-47
2021/03/20 00:41:54;;;;;;;;;;;;;;;19.40;35.82;101000.72;5059125;28;914;-45
2021/03/20 00:44:19;;;;;;;;;;;;;;;19.34;35.78;100999.94;5058939;28;813;-45
2021/03/20 00:46:44;;;;;;;;;;;;;;;20.16;34.26;101003.94;5059637;28;1018;-45
2021/03/20 00:49:10;;;;;;;;;;;;;;;20.25;33.94;100995.84;5059047;28;799;-44
2021/03/20 00:51:36;;;;;;;;;;;;;;;19.94;34.74;101001.69;5058334;28;1905;-45
2021/03/20 00:54:02;;;;;;;;;;;;;;;19.72;35.23;100993.84;5058702;28;808;-44
2021/03/20 00:56:27;;;;;;;;;;;;;;;19.13;36.13;100986.28;5058874;28;862;-47
2021/03/20 00:58:53;;;;;;;;;;;;;;;19.76;35.21;100992.97;5058620;28;752;-44
2021/03/20 01:01:19;;;;;;;;;;;;;;;20.43;33.80;100992.31;5058573;28;749;-56
2021/03/20 01:03:44;;;;;;;;;;;;;;;19.75;35.10;100988.56;5058889;28;955;-45
2021/03/20 01:06:11;;;;;;;;;;;;;;;19.71;35.24;100992.19;5058051;28;755;-44
2021/03/20 01:08:37;;;;;;;;;;;;;;;19.38;35.89;101000.22;5058723;28;792;-44
2021/03/20 01:11:03;;;;;;;;;;;;;;;19.58;35.63;100988.19;5058478;28;800;-44
2021/03/20 01:13:28;;;;;;;;;;;;;;;20.32;33.85;101002.66;5058049;28;1982;-44
2021/03/20 01:15:54;;;;;;;;;;;;;;;19.87;34.79;100996.50;5058456;28;840;-43
2021/03/20 01:18:19;;;;;;;;;;;;;;;19.88;34.70;101003.69;5058683;28;967;-44
2021/03/20 01:20:45;;;;;;;;;;;;;;;19.25;36.05;101007.16;5058395;28;736;-44
2021/03/20 01:23:10;;;;;;;;;;;;;;;19.28;36.14;101009.38;5058700;28;740;-44
2021/03/20 01:25:36;;;;;;;;;;;;;;;20.16;34.50;101012.22;5058099;28;827;-44
2021/03/20 01:28:01;;;;;;;;;;;;;;;20.03;34.59;101007.41;5057645;28;883;-44
2021/03/20 01:30:28;;;;;;;;;;;;;;;19.74;35.14;101010.94;5058580;28;816;-44
2021/03/20 01:32:54;;;;;;;;;;;;;;;19.46;35.66;101018.88;5069683;28;1926;-43
2021/03/20 01:35:19;;;;;;;;;;;;;;;19.20;36.30;101012.75;5077936;28;767;-44
2021/03/20 01:37:45;;;;;;;;;;;;;;;20.07;34.48;101016.75;5078110;28;863;-45
2021/03/20 01:40:10;;;;;;;;;;;;;;;19.96;34.55;101010.50;5077124;28;854;-45
2021/03/20 01:42:42;;;;;;;;;;;;;;;19.82;35.06;101008.44;5077601;28;804;-44
2021/03/20 01:45:10;;;;;;;;;;;;;;;19.45;35.56;101008.97;5077867;28;784;-44
2021/03/20 01:47:43;;;;;;;;;;;;;;;19.06;36.37;101012.53;5076943;28;1005;-44
2021/03/20 01:50:11;;;;;;;;;;;;;;;19.95;34.50;101014.34;5059861;28;788;-43
2021/03/20 01:52:36;;;;;;;;;;;;;;;20.60;33.61;101013.13;5059901;28;1917;-46
2021/03/20 01:55:05;;;;;;;;;;;;;;;20.82;33.06;101016.16;5059908;28;760;-44
2021/03/20 01:57:41;;;;;;;;;;;;;;;20.17;34.35;101011.94;5077440;28;1492;-45
2021/03/20 02:00:08;;;;;;;;;;;;;;;19.99;34.39;101007.13;5049510;28;876;-45
2021/03/20 02:02:37;;;;;;;;;;;;;;;19.38;35.64;101009.28;5057569;28;947;-45
2021/03/20 02:05:03;;;;;;;;;;;;;;;19.24;36.01;101016.56;5057178;28;791;-44
2021/03/20 02:07:28;;;;;;;;;;;;;;;20.17;34.17;101005.59;5057716;28;892;-44
2021/03/20 02:09:54;;;;;;;;;;;;;;;19.92;34.62;101009.41;5039563;28;899;-45
2021/03/20 02:12:20;;;;;;;;;;;;;;;19.91;34.76;101016.03;5022663;28;1922;-44
2021/03/20 02:14:51;;;;;;;;;;;;;;;19.39;35.63;101030.25;5057480;28;780;-45
2021/03/20 02:17:29;;;;;;;;;;;;;;;19.07;36.33;101034.31;5045821;28;964;-45
2021/03/20 02:20:13;;;;;;;;;;;;;;;19.95;34.72;101036.44;5076927;28;895;-48
2021/03/20 02:22:57;;;;;;;;;;;;;;;20.03;34.34;101041.31;5076946;28;752;-45
2021/03/20 02:25:23;;;;;;;;;;;;;;;19.87;34.64;101046.19;5077097;28;847;-45
2021/03/20 02:27:48;;;;;;;;;;;;;;;19.40;35.57;101048.41;5076782;28;741;-44
2021/03/20 02:30:29;;;;;;;;;;;;;;;19.22;36.30;101057.38;5076764;28;991;-45
2021/03/20 02:33:13;;;;;;;;;;;;;;;20.12;34.53;101058.91;5058211;28;1910;-45
2021/03/20 02:35:41;;;;;;;;;;;;;;;19.70;34.96;101063.13;5077108;28;751;-44
2021/03/20 02:38:07;;;;;;;;;;;;;;;19.77;34.80;101065.56;5076663;28;855;-44
2021/03/20 02:40:32;;;;;;;;;;;;;;;19.21;35.93;101055.72;5077170;28;804;-44
2021/03/20 02:43:02;;;;;;;;;;;;;;;18.97;36.56;101056.38;5076574;28;824;-45
2021/03/20 02:45:39;;;;;;;;;;;;;;;20.01;34.41;101054.63;5076529;28;823;-50
2021/03/20 02:48:13;;;;;;;;;;;;;;;20.10;34.11;101054.78;5075790;28;1006;-45
2021/03/20 02:50:56;;;;;;;;;;;;;;;19.85;34.63;101058.63;5058684;28;738;-44
2021/03/20 02:53:22;;;;;;;;;;;;;;;19.44;35.53;101055.00;5058990;28;1905;-45
2021/03/20 02:55:49;;;;;;;;;;;;;;;19.09;36.36;101059.63;5059057;28;768;-44
2021/03/20 02:58:16;;;;;;;;;;;;;;;19.99;34.59;101059.59;5058334;28;812;-45
2021/03/20 03:00:47;;;;;;;;;;;;;;;20.28;33.71;101067.88;5058751;28;583;-46
2021/03/20 03:03:12;;;;;;;;;;;;;;;19.91;34.48;101069.31;5057805;28;1010;-45
2021/03/20 03:05:58;;;;;;;;;;;;;;;19.55;35.22;101068.75;5058129;28;760;-44
2021/03/20 03:08:24;;;;;;;;;;;;;;;19.02;36.22;101072.91;5076255;28;1133;-46
2021/03/20 03:10:51;;;;;;;;;;;;;;;19.87;34.90;101068.25;5058677;28;740;-44
2021/03/20 03:13:19;;;;;;;;;;;;;;;20.20;33.81;101062.97;5057965;28;1918;-44
2021/03/20 03:15:46;;;;;;;;;;;;;;;19.90;34.53;101069.63;5058651;28;772;-45
2021/03/20 03:18:19;;;;;;;;;;;;;;;19.55;35.18;101071.50;5057591;28;1003;-44
2021/03/20 03:20:45;;;;;;;;;;;;;;;19.07;36.26;101059.13;5057943;28;1189;-45
2021/03/20 03:23:12;;;;;;;;;;;;;;;19.83;34.65;101072.69;5076458;28;960;-46
2021/03/20 03:25:37;;;;;;;;;;;;;;;20.38;33.77;101061.41;5059000;28;826;-45
2021/03/20 03:28:04;;;;;;;;;;;;;;;19.92;34.67;101059.09;5057983;28;871;-45
2021/03/20 03:30:29;;;;;;;;;;;;;;;19.74;34.86;101053.16;5058875;28;791;-47
2021/03/20 03:32:57;;;;;;;;;;;;;;;19.10;36.14;101061.28;5057499;28;1984;-45
2021/03/20 03:35:24;;;;;;;;;;;;;;;19.80;34.72;101053.97;5057869;28;981;-44
2021/03/20 03:38:09;;;;;;;;;;;;;;;20.32;33.80;101055.13;5058343;28;847;-45
2021/03/20 03:40:42;;;;;;;;;;;;;;;19.74;34.73;101058.69;5076114;28;953;-46
2021/03/20 03:43:08;;;;;;;;;;;;;;;19.53;35.47;101054.41;5058027;28;804;-44
2021/03/20 03:45:33;;;;;;;;;;;;;;;19.02;36.43;101063.81;5058463;28;890;-45
2021/03/20 03:47:59;;;;;;;;;;;;;;;19.70;35.05;101068.63;5074939;28;963;-47
2021/03/20 03:50:26;;;;;;;;;;;;;;;20.24;33.93;101061.28;5076202;28;775;-45
2021/03/20 03:52:51;;;;;;;;;;;;;;;19.72;34.74;101060.88;5076053;28;1909;-46
2021/03/20 03:55:16;;;;;;;;;;;;;;;19.66;34.83;101068.38;5075720;28;755;-45
2021/03/20 03:57:53;;;;;;;;;;;;;;;19.25;35.72;101078.84;5057949;28;798;-45
2021/03/20 04:00:44;;;;;;;;;;;;;;;19.88;34.42;101077.34;5058090;28;801;-48
2021/03/20 04:03:10;;;;;;;;;;;;;;;20.12;33.92;101078.25;5053245;28;1241;-45
2021/03/20 04:05:41;;;;;;;;;;;;;;;19.86;34.45;101077.63;5079815;28;796;-46
2021/03/20 04:08:26;;;;;;;;;;;;;;;19.63;34.82;101077.22;5079617;28;732;-59
2021/03/20 04:11:02;;;;;;;;;;;;;;;19.08;36.09;101085.56;5045041;28;1257;-44
2021/03/20 04:13:40;;;;;;;;;;;;;;;20.02;34.19;101070.06;5079526;28;1922;-45
2021/03/20 04:16:15;;;;;;;;;;;;;;;20.05;33.97;101077.75;5079088;28;911;-44
2021/03/20 04:18:41;;;;;;;;;;;;;;;19.81;34.53;101086.78;5042152;28;959;-44
2021/03/20 04:21:06;;;;;;;;;;;;;;;19.46;35.14;101080.38;5059544;28;835;-45
2021/03/20 04:23:32;;;;;;;;;;;;;;;19.02;36.15;101086.69;5059190;28;771;-45
2021/03/20 04:25:57;;;;;;;;;;;;;;;19.93;34.66;101082.84;5041403;28;832;-56
2021/03/20 04:28:35;;;;;;;;;;;;;;;20.42;33.55;101084.56;5059946;28;748;-48
2021/03/20 04:31:03;;;;;;;;;;;;;;;19.76;34.60;101078.50;5040973;28;1171;-52
2021/03/20 04:33:30;;;;;;;;;;;;;;;19.62;34.78;101094.88;5040225;28;1969;-47
2021/03/20 04:35:57;;;;;;;;;;;;;;;19.28;35.57;101089.34;5042061;28;777;-46
2021/03/20 04:38:22;;;;;;;;;;;;;;;19.22;36.05;101084.94;5059230;28;771;-46
2021/03/20 04:40:48;;;;;;;;;;;;;;;20.06;34.04;101081.34;5059112;28;731;-45
2021/03/20 04:43:14;;;;;;;;;;;;;;;19.97;34.18;101093.00;5059104;28;752;-51
2021/03/20 04:45:41;;;;;;;;;;;;;;;19.79;34.53;101089.00;5041203;28;840;-48
2021/03/20 04:48:17;;;;;;;;;;;;;;;19.38;35.23;101085.69;5041554;28;952;-57
2021/03/20 04:50:43;;;;;;;;;;;;;;;19.27;35.93;101084.91;5059456;28;768;-46
2021/03/20 04:53:09;;;;;;;;;;;;;;;20.17;33.80;101086.50;5041368;28;1914;-44
2021/03/20 04:55:35;;;;;;;;;;;;;;;19.94;34.25;101090.00;5030606;28;1487;-44
2021/03/20 04:58:06;;;;;;;;;;;;;;;19.70;34.84;101089.88;5079278;28;740;-45
2021/03/20 05:00:32;;;;;;;;;;;;;;;19.36;35.29;101094.22;5079166;28;892;-46
2021/03/20 05:02:57;;;;;;;;;;;;;;;19.15;35.87;101096.25;5065725;28;970;-45
2021/03/20 05:05:35;;;;;;;;;;;;;;;20.05;34.07;101102.59;5077788;28;818;-47
2021/03/20 05:08:10;;;;;;;;;;;;;;;19.88;34.43;101096.66;5078648;28;795;-45
2021/03/20 05:10:35;;;;;;;;;;;;;;;19.72;34.57;101104.22;5044121;28;1227;-46
2021/03/20 05:13:01;;;;;;;;;;;;;;;19.49;35.08;101109.34;5078558;28;1913;-46
2021/03/20 05:15:27;;;;;;;;;;;;;;;19.31;35.54;101113.56;5077340;28;820;-45
2021/03/20 05:17:53;;;;;;;;;;;;;;;20.21;33.89;101113.50;5048372;28;978;-45
2021/03/20 05:20:18;;;;;;;;;;;;;;;19.95;34.02;101130.28;5058414;28;756;-45
2021/03/20 05:22:44;;;;;;;;;;;;;;;19.77;34.80;101123.50;5058522;28;752;-48
2021/03/20 05:25:12;;;;;;;;;;;;;;;19.38;35.15;101122.34;5058038;28;903;-46
2021/03/20 05:27:38;;;;;;;;;;;;;;;19.02;36.20;101129.97;5058194;28;756;-59
2021/03/20 05:30:03;;;;;;;;;;;;;;;19.94;34.26;101125.88;5058461;28;748;-42
2021/03/20 05:32:30;;;;;;;;;;;;;;;20.19;33.50;101124.84;5065791;28;1994;-52
2021/03/20 05:34:55;;;;;;;;;;;;;;;19.75;34.49;101137.56;5077937;28;855;-51
2021/03/20 05:37:23;;;;;;;;;;;;;;;19.66;34.50;101137.34;5069124;28;1253;-44
2021/03/20 05:39:49;;;;;;;;;;;;;;;19.10;35.84;101141.22;5040165;28;1166;-48
2021/03/20 05:42:18;;;;;;;;;;;;;;;19.87;34.48;101140.00;5040142;28;922;-53
2021/03/20 05:44:47;;;;;;;;;;;;;;;20.20;33.83;101142.22;5058246;28;824;-56
2021/03/20 05:47:33;;;;;;;;;;;;;;;19.77;34.52;101140.06;5046565;28;951;-46
2021/03/20 05:50:17;;;;;;;;;;;;;;;19.70;34.53;101147.81;5077256;28;1065;-53
2021/03/20 05:53:02;;;;;;;;;;;;;;;19.26;35.59;101141.16;5077811;28;1921;-45
2021/03/20 05:55:30;;;;;;;;;;;;;;;20.21;33.83;101132.84;5077863;28;813;-45
2021/03/20 05:58:14;;;;;;;;;;;;;;;20.07;33.72;101140.97;5059726;28;925;-56
2021/03/20 06:00:45;;;;;;;;;;;;;;;19.80;34.26;101137.56;5077816;28;740;-45
2021/03/20 06:03:18;;;;;;;;;;;;;;;19.45;35.01;101150.44;5058546;28;1083;-57
2021/03/20 06:05:51;;;;;;;;;;;;;;;19.20;35.57;101147.81;5060476;28;729;-45
2021/03/20 06:08:16;;;;;;;;;;;;;;;20.08;33.95;101156.41;5077600;28;835;-47
2021/03/20 06:10:52;;;;;;;;;;;;;;;20.03;33.80;101157.25;5077308;28;776;-53
2021/03/20 06:13:33;;;;;;;;;;;;;;;19.83;34.38;101156.31;5059793;28;1914;-47
2021/03/20 06:16:17;;;;;;;;;;;;;;;19.36;35.34;101162.34;5077907;28;752;-44
2021/03/20 06:19:01;;;;;;;;;;;;;;;19.12;35.91;101166.56;5076917;28;998;-45
2021/03/20 06:21:45;;;;;;;;;;;;;;;20.16;33.80;101164.06;5077324;28;748;-46
2021/03/20 06:24:25;;;;;;;;;;;;;;;20.10;33.66;101168.00;5076673;28;843;-46
2021/03/20 06:26:51;;;;;;;;;;;;;;;19.75;34.35;101169.84;5077218;28;835;-43
2021/03/20 06:29:18;;;;;;;;;;;;;;;19.46;34.98;101168.66;5059255;28;1083;-44
2021/03/20 06:31:46;;;;;;;;;;;;;;;19.56;34.89;101172.44;5075547;28;1017;-53
2021/03/20 06:34:16;;;;;;;;;;;;;;;20.29;33.36;101173.66;5077393;28;775;-45
2021/03/20 06:36:43;;;;;;;;;;;;;;;19.94;34.27;101178.31;5059075;28;876;-47
2021/03/20 06:39:12;;;;;;;;;;;;;;;19.76;34.40;101180.59;5058692;28;864;-44
2021/03/20 06:41:49;;;;;;;;;;;;;;;19.40;35.24;101180.78;5077232;28;796;-48
2021/03/20 06:44:20;;;;;;;;;;;;;;;19.74;34.56;101182.84;5059040;28;831;-56
2021/03/20 06:46:46;;;;;;;;;;;;;;;20.33;33.40;101177.47;5075264;28;999;-45
2021/03/20 06:49:18;;;;;;;;;;;;;;;19.77;34.43;101176.75;5059136;28;752;-47
2021/03/20 06:51:44;;;;;;;;;;;;;;;19.78;34.22;101175.63;5058521;28;835;-48
2021/03/20 06:54:09;;;;;;;;;;;;;;;19.19;35.54;101176.47;5076460;28;1910;-45
2021/03/20 06:56:35;;;;;;;;;;;;;;;19.71;34.42;101172.34;5058920;28;878;-45
2021/03/20 06:59:00;;;;;;;;;;;;;;;20.34;33.27;101179.94;5058893;28;804;-48
2021/03/20 07:01:52;;;;;;;;;;;;;;;19.88;34.14;101176.69;5057870;28;1010;-47
2021/03/20 07:04:18;;;;;;;;;;;;;;;19.63;34.48;101175.72;5052301;28;1265;-49
2021/03/20 07:06:43;;;;;;;;;;;;;;;19.16;35.60;101169.59;5056421;28;764;-45
2021/03/20 07:09:09;;;;;;;;;;;;;;;19.81;34.32;101169.56;5056151;28;760;-43
2021/03/20 07:11:35;;;;;;;;;;;;;;;20.38;33.21;101162.78;5057016;28;779;-59
2021/03/20 07:14:07;;;;;;;;;;;;;;;19.86;34.35;101159.63;5056125;28;1979;-48
2021/03/20 07:16:49;;;;;;;;;;;;;;;19.74;34.60;101169.03;5054861;28;920;-47
2021/03/20 07:19:15;;;;;;;;;;;;;;;19.20;35.60;101161.59;5056305;28;850;-44
2021/03/20 07:21:41;;;;;;;;;;;;;;;19.55;34.92;101157.03;5056040;28;755;-54
2021/03/20 07:24:09;;;;;;;;;;;;;;;20.35;33.26;101162.25;5056175;28;851;-45
2021/03/20 07:26:53;;;;;;;;;;;;;;;19.72;34.38;101154.69;5056332;28;823;-63
2021/03/20 07:29:19;;;;;;;;;;;;;;;19.72;34.39;101151.13;5056601;28;796;-48
2021/03/20 07:32:03;;;;;;;;;;;;;;;19.15;35.41;101146.72;5055830;28;1135;-60
2021/03/20 07:34:29;;;;;;;;;;;;;;;20.01;34.02;101148.47;5056136;28;1060;-47
2021/03/20 07:37:00;;;;;;;;;;;;;;;20.21;33.59;101155.75;5056277;28;1509;-46
2021/03/20 07:39:26;;;;;;;;;;;;;;;19.98;33.91;101152.63;5066115;28;1144;-46
2021/03/20 07:41:54;;;;;;;;;;;;;;;19.71;34.35;101144.75;5092577;28;796;-50
2021/03/20 07:44:23;;;;;;;;;;;;;;;19.04;35.84;101139.59;5100351;28;835;-46
2021/03/20 07:46:49;;;;;;;;;;;;;;;19.73;34.74;101141.75;5092374;28;859;-46
2021/03/20 07:49:24;;;;;;;;;;;;;;;20.46;33.07;101138.13;5060188;28;815;-43
2021/03/20 07:51:54;;;;;;;;;;;;;;;19.76;34.36;101143.91;5059141;28;1894;-62
2021/03/20 07:54:20;;;;;;;;;;;;;;;19.64;34.48;101147.00;5058609;28;743;-50
2021/03/20 07:56:46;;;;;;;;;;;;;;;19.18;35.61;101152.78;5059007;28;861;-58
2021/03/20 07:59:30;;;;;;;;;;;;;;;19.84;34.47;101157.16;5060157;28;818;-51
2021/03/20 08:01:57;;;;;;;;;;;;;;;20.65;32.72;101148.41;5041269;28;1295;-46
2021/03/20 08:04:41;;;;;;;;;;;;;;;21.14;31.85;101155.66;5059684;28;856;-45
2021/03/20 08:07:06;;;;;;;;;;;;;;;20.18;33.57;101156.31;5058672;28;824;-44
2021/03/20 08:09:32;;;;;;;;;;;;;;;19.92;33.82;101148.25;5058819;28;768;-46
2021/03/20 08:11:57;;;;;;;;;;;;;;;19.48;34.91;101160.91;5058406;28;1912;-59
2021/03/20 08:14:44;;;;;;;;;;;;;;;19.20;35.72;101158.84;5059760;28;732;-46
2021/03/20 08:17:15;;;;;;;;;;;;;;;19.83;34.49;101155.50;5057828;28;974;-54
2021/03/20 08:19:41;;;;;;;;;;;;;;;20.45;33.08;101163.28;5059649;28;819;-51
2021/03/20 08:22:26;;;;;;;;;;;;;;;19.97;34.21;101153.72;5058370;28;752;-59
2021/03/20 08:24:53;;;;;;;;;;;;;;;19.76;34.59;101158.53;5052172;28;1308;-59
2021/03/20 08:27:20;;;;;;;;;;;;;;;19.40;34.97;101153.22;5059624;28;736;-51
2021/03/20 08:29:55;;;;;;;;;;;;;;;19.61;34.90;101159.44;5064158;28;1059;-51
2021/03/20 08:32:42;;;;;;;;;;;;;;;20.47;32.99;101147.25;5070790;28;1910;-48
2021/03/20 08:35:10;;;;;;;;;;;;;;;19.94;34.29;101143.25;5059309;28;756;-45
2021/03/20 08:37:36;;;;;;;;;;;;;;;19.94;34.14;101147.97;5059310;28;739;-52
2021/03/20 08:40:07;;;;;;;;;;;;;;;19.40;35.17;101161.47;5059510;28;788;-58
2021/03/20 08:42:42;;;;;;;;;;;;;;;19.41;35.32;101162.34;5059201;28;788;-58
2021/03/20 08:45:07;;;;;;;;;;;;;;;20.36;33.36;101152.03;5058565;28;748;-57
2021/03/20 08:47:36;;;;;;;;;;;;;;;20.00;34.03;101157.84;5059022;28;932;-45
2021/03/20 08:50:37;;;;;;;;;;;;;;;20.05;34.01;101154.22;5058880;28;791;-44
2021/03/20 08:53:10;;;;;;;;;;;;;;;19.47;34.82;101163.94;4997108;28;1918;-46
2021/03/20 08:55:50;;;;;;;;;;;;;;;19.12;35.55;101163.81;5031846;28;984;-43
2021/03/20 08:58:31;;;;;;;;;;;;;;;19.97;34.04;101156.47;5040868;28;896;-45
2021/03/20 09:00:58;;;;;;;;;;;;;;;20.12;33.59;101151.97;5058482;28;821;-44
2021/03/20 09:03:29;;;;;;;;;;;;;;;19.82;34.11;101157.44;5058727;28;1026;-51
2021/03/20 09:05:58;;;;;;;;;;;;;;;19.72;34.50;101159.41;5041257;28;1023;-52
2021/03/20 09:08:31;;;;;;;;;;;;;;;19.13;35.69;101159.13;5058002;28;895;-43
2021/03/20 09:11:01;;;;;;;;;;;;;;;20.02;34.08;101152.88;5040877;28;845;-54
2021/03/20 09:13:31;;;;;;;;;;;;;;;20.16;33.65;101162.13;5060141;28;1983;-45
2021/03/20 09:15:58;;;;;;;;;;;;;;;19.74;34.60;101162.69;5060427;28;988;-56
2021/03/20 09:18:23;;;;;;;;;;;;;;;19.62;34.59;101165.81;5044066;28;931;-43
2021/03/20 09:20:56;;;;;;;;;;;;;;;19.11;35.64;101178.72;5040736;28;729;-57
2021/03/20 09:23:32;;;;;;;;;;;;;;;20.06;34.06;101173.25;5040456;28;871;-48
2021/03/20 09:25:59;;;;;;;;;;;;;;;20.12;33.74;101163.00;5040613;28;852;-48
2021/03/20 09:28:29;;;;;;;;;;;;;;;19.80;34.41;101167.91;5040646;28;820;-50
2021/03/20 09:31:02;;;;;;;;;;;;;;;19.60;34.54;101170.75;5057849;28;815;-45
2021/03/20 09:33:28;;;;;;;;;;;;;;;19.12;35.81;101169.31;5056143;28;1902;-55
2021/03/20 09:35:54;;;;;;;;;;;;;;;20.15;33.78;101174.28;5060630;28;1262;-57
2021/03/20 09:38:34;;;;;;;;;;;;;;;20.07;33.71;101172.16;5059997;28;768;-48
2021/03/20 09:41:06;;;;;;;;;;;;;;;19.86;34.11;101176.19;5078275;28;851;-62
2021/03/20 09:43:32;;;;;;;;;;;;;;;19.37;34.93;101164.81;5059861;28;776;-49
2021/03/20 09:46:16;;;;;;;;;;;;;;;19.31;35.19;101168.72;5078202;28;820;-58
2021/03/20 09:48:42;;;;;;;;;;;;;;;20.43;33.30;101169.09;5077080;28;951;-48
2021/03/20 09:51:26;;;;;;;;;;;;;;;19.98;34.07;101162.84;5077361;28;775;-60
2021/03/20 09:53:51;;;;;;;;;;;;;;;19.88;33.99;101165.66;5078034;28;1906;-54
2021/03/20 09:56:27;;;;;;;;;;;;;;;19.25;35.31;101167.06;5077843;28;812;-46
2021/03/20 09:58:53;;;;;;;;;;;;;;;19.68;34.66;101159.13;5077363;28;796;-46
2021/03/20 10:01:18;;;;;;;;;;;;;;;20.43;33.17;101152.50;5077254;28;768;-47
2021/03/20 10:03:48;;;;;;;;;;;;;;;20.01;33.71;101145.69;5086492;28;923;-61
2021/03/20 10:06:33;;;;;;;;;;;;;;;19.86;34.19;101145.81;5078941;28;888;-51
2021/03/20 10:09:01;;;;;;;;;;;;;;;19.11;35.68;101150.31;5079806;28;736;-49
2021/03/20 10:11:30;;;;;;;;;;;;;;;19.89;34.27;101148.00;5098087;28;795;-46
2021/03/20 10:13:55;;;;;;;;;;;;;;;20.54;32.73;101147.72;5079639;28;1914;-48
2021/03/20 10:16:22;;;;;;;;;;;;;;;19.91;34.03;101151.28;5057789;28;741;-46
2021/03/20 10:18:51;;;;;;;;;;;;;;;19.76;34.47;101141.97;5058007;28;967;-46
2021/03/20 10:21:28;;;;;;;;;;;;;;;19.22;35.37;101145.59;5076942;28;756;-47
2021/03/20 10:24:00;;;;;;;;;;;;;;;19.87;34.13;101144.72;5077778;28;791;-45
2021/03/20 10:26:44;;;;;;;;;;;;;;;20.51;33.00;101149.13;5077145;28;757;-47
2021/03/20 10:29:12;;;;;;;;;;;;;;;19.98;33.78;101151.81;5076860;28;803;-44
2021/03/20 10:31:42;;;;;;;;;;;;;;;19.80;34.42;101148.59;5076311;28;1392;-44
2021/03/20 10:34:09;;;;;;;;;;;;;;;19.13;35.53;101153.63;5076782;28;1973;-46
2021/03/20 10:36:36;;;;;;;;;;;;;;;19.92;34.04;101158.47;5076697;28;1014;-56
2021/03/20 10:39:01;;;;;;;;;;;;;;;20.39;33.28;101167.22;5077084;28;843;-43
2021/03/20 10:41:33;;;;;;;;;;;;;;;19.87;34.08;101164.84;5076769;28;796;-45
2021/03/20 10:44:11;;;;;;;;;;;;;;;19.75;34.30;101165.16;5076527;28;854;-46
2021/03/20 10:46:37;;;;;;;;;;;;;;;19.06;35.86;101162.19;5076442;28;1049;-47
2021/03/20 10:49:05;;;;;;;;;;;;;;;19.99;34.25;101164.47;5058950;28;807;-46
2021/03/20 10:51:35;;;;;;;;;;;;;;;20.33;33.26;101152.63;5058703;28;803;-56
2021/03/20 10:54:21;;;;;;;;;;;;;;;19.85;34.36;101160.72;5058765;28;1910;-51
2021/03/20 10:56:46;;;;;;;;;;;;;;;19.54;34.92;101169.16;5076144;28;1299;-51
2021/03/20 10:59:21;;;;;;;;;;;;;;;19.30;35.27;101169.81;5057889;28;1000;-46
2021/03/20 11:01:46;;;;;;;;;;;;;;;20.22;33.63;101173.16;5058232;28;1006;-55
2021/03/20 11:04:25;;;;;;;;;;;;;;;20.15;33.55;101170.72;5076568;28;795;-57
2021/03/20 11:06:51;;;;;;;;;;;;;;;19.97;33.86;101170.28;5076332;28;759;-47
2021/03/20 11:09:23;;;;;;;;;;;;;;;19.71;34.56;101174.28;5076802;28;859;-56
2021/03/20 11:11:49;;;;;;;;;;;;;;;19.25;35.24;101180.84;5076101;28;771;-45
2021/03/20 11:14:18;;;;;;;;;;;;;;;19.61;34.88;101184.25;5075765;28;1977;-46
2021/03/20 11:16:51;;;;;;;;;;;;;;;20.41;33.41;101182.38;5075332;28;1002;-44
2021/03/20 11:19:29;;;;;;;;;;;;;;;19.88;34.23;101173.94;5058716;28;832;-45
2021/03/20 11:21:59;;;;;;;;;;;;;;;19.71;34.44;101172.34;5076237;28;811;-50
2021/03/20 11:24:28;;;;;;;;;;;;;;;19.32;35.19;101162.06;5059032;28;886;-50
2021/03/20 11:26:53;;;;;;;;;;;;;;;19.83;34.25;101164.59;5076479;28;855;-45
2021/03/20 11:29:20;;;;;;;;;;;;;;;20.49;33.17;101176.19;5041590;28;813;-48
2021/03/20 11:31:50;;;;;;;;;;;;;;;20.03;33.99;101168.31;5057410;28;950;-46
2021/03/20 11:34:20;;;;;;;;;;;;;;;19.91;33.85;101173.34;5076474;28;1910;-43
2021/03/20 11:36:46;;;;;;;;;;;;;;;19.21;35.59;101171.50;5058312;28;808;-44
2021/03/20 11:39:12;;;;;;;;;;;;;;;19.65;34.65;101165.22;5058257;28;929;-44
2021/03/20 11:41:38;;;;;;;;;;;;;;;20.45;33.14;101154.97;5057997;28;872;-44
2021/03/20 11:44:04;;;;;;;;;;;;;;;19.94;34.09;101156.25;5057717;28;899;-54
2021/03/20 11:46:31;;;;;;;;;;;;;;;19.88;34.37;101151.84;5075570;28;1006;-44
2021/03/20 11:49:01;;;;;;;;;;;;;;;19.38;35.13;101149.94;5041321;28;771;-49
2021/03/20 11:51:30;;;;;;;;;;;;;;;19.16;35.53;101142.03;5058113;28;795;-55
2021/03/20 11:53:58;;;;;;;;;;;;;;;19.76;34.52;101139.22;5057741;28;1917;-44
2021/03/20 11:56:24;;;;;;;;;;;;;;;20.54;33.06;101133.91;5076400;28;851;-51
2021/03/20 11:58:54;;;;;;;;;;;;;;;19.94;34.09;101134.97;5075624;28;803;-44
2021/03/20 12:01:27;;;;;;;;;;;;;;;19.98;34.21;101126.97;5076452;28;755;-54
2021/03/20 12:03:53;;;;;;;;;;;;;;;19.37;35.22;101126.22;5073556;28;907;-42
2021/03/20 12:06:31;;;;;;;;;;;;;;;19.13;35.69;101135.16;5075838;28;726;-44
2021/03/20 12:08:58;;;;;;;;;;;;;;;19.28;35.36;101126.00;5057880;28;789;-46
2021/03/20 12:11:42;;;;;;;;;;;;;;;20.21;34.04;101119.03;5058003;28;815;-47
2021/03/20 12:14:26;;;;;;;;;;;;;;;19.99;34.14;101123.06;5075952;28;1895;-61
2021/03/20 12:16:56;;;;;;;;;;;;;;;19.80;34.64;101120.19;5074983;28;946;-56
2021/03/20 12:19:22;;;;;;;;;;;;;;;19.44;35.23;101126.72;5057488;28;1455;-44
2021/03/20 12:21:52;;;;;;;;;;;;;;;19.11;36.09;101129.09;5075804;28;819;-47
2021/03/20 12:24:23;;;;;;;;;;;;;;;20.14;33.90;101114.66;5059560;28;812;-46
2021/03/20 12:26:49;;;;;;;;;;;;;;;20.07;33.91;101105.88;5060697;28;1007;-44
2021/03/20 12:29:26;;;;;;;;;;;;;;;19.96;34.30;101099.66;5079353;28;756;-45
2021/03/20 12:31:52;;;;;;;;;;;;;;;19.48;35.00;101091.94;5074702;28;1001;-56
2021/03/20 12:34:18;;;;;;;;;;;;;;;19.29;35.68;101100.06;5040898;28;1914;-45
2021/03/20 12:36:44;;;;;;;;;;;;;;;20.29;33.70;101099.91;5059434;28;812;-46
2021/03/20 12:39:17;;;;;;;;;;;;;;;20.31;33.57;101105.97;5041508;28;1276;-45
2021/03/20 12:41:44;;;;;;;;;;;;;;;19.97;34.20;101104.03;5058870;28;756;-59
2021/03/20 12:44:13;;;;;;;;;;;;;;;19.60;35.04;101105.41;5025047;28;760;-57
2021/03/20 12:46:40;;;;;;;;;;;;;;;19.06;36.05;101109.00;5059382;28;959;-58
2021/03/20 12:49:05;;;;;;;;;;;;;;;20.08;34.16;101106.72;5058765;28;836;-56
2021/03/20 12:51:31;;;;;;;;;;;;;;;20.06;34.26;101115.28;5059430;28;811;-46
2021/03/20 12:53:56;;;;;;;;;;;;;;;19.88;34.45;101110.47;5059434;28;1910;-55
2021/03/20 12:56:22;;;;;;;;;;;;;;;19.66;34.87;101106.19;5058662;28;795;-45
2021/03/20 12:58:47;;;;;;;;;;;;;;;19.09;36.17;101106.50;5059322;28;779;-46
2021/03/20 13:01:13;;;;;;;;;;;;;;;19.88;34.61;101110.47;5059249;28;776;-52
2021/03/20 13:03:38;;;;;;;;;;;;;;;20.16;34.00;101109.69;5058326;28;959;-46
2021/03/20 13:06:04;;;;;;;;;;;;;;;19.81;34.47;101103.34;5058867;28;807;-59
2021/03/20 13:08:29;;;;;;;;;;;;;;;19.66;35.05;101106.19;5058764;28;772;-47